West Leisenring, Pennsylvania
Current Conditions -  °F | °C
As of 11:53 AM on Tuesday 27 Jan 2015 (Local Time) from KMGW Reporting Station
Overcast Overcast  
Wind Chill: 16°   Ceiling: 3100
Heat Index: 22°   Visibility: 10mi
Dew Point: 12°   Wind: 5mph
Humidity: 66%   Direction: NA
Pressure: 29.93"   Gusts: NA
Location:  39.96°N, 79.7°W
Report Text: KMGW 271653Z VRB04KT 10SM SCT023 OVC031 M06/M11 A2993 RMK AO2 SLP152 T10561111
Loading
Personal Weather Stations






























Interactive Weather Map New forecast layout! Learn more

10-Day Weather Forecast

Advertisements
Track Severe Weather on mobile